VCU/West, Virginia
Current Conditions -  °F | °C
As of 4:54 AM on Tuesday 27 Jan 2015 (Local Time) from KRIC Reporting Station
Overcast Overcast  
Wind Chill: 20°   Ceiling: 6000
Heat Index: 31°   Visibility: 10mi
Dew Point: 24°   Wind: 15mph
Humidity: 76%   Direction: 350°N
Pressure: 29.73"   Gusts: 28mph
Location:  37.549°N, 77.4581°W
Report Text: KRIC 270954Z 35013G24KT 10SM SCT022 BKN060 OVC085 M01/M04 A2973 RMK AO2 PK WND 01026/0858 SLP073 T10061044
Loading
Personal Weather Stations






























Interactive Weather Map New forecast layout! Learn more

10-Day Weather Forecast

Advertisements
Track Severe Weather on mobile